TML weather

Tamale Airport
Tamale, Northern Region, Ghana

Public forecast

Using degrees Celsius for public forecast. Weather courtesy of forecast.io.

Current aviation weather report (METAR) for Tamale Airport

Report is more than 6 hours old.

Retrieved 2020/05/24 15:00 UTC (1 day ago):

DGLE 241500Z 23006KT 9999 BKN016 FEW030CB 37/22 Q1009 NOSIG

Closest aviation forecast (TAF) to Tamale Airport

Closest forecast is Niamtougou International Airport, 116.4 nm (215.5 km) E. Retrieved 2020/05/25 18:36 UTC (49 minutes ago):

TAF TAF DXNG 251700Z 2518/2618 VRB05KT 9999 FEW010